sensor_id;sensor_type;location;lat;lon;timestamp;temperature;humidity
17659;DHT22;8948;51.534;8.262;2023-12-04T00:04:42;1.10;71.30
17659;DHT22;8948;51.534;8.262;2023-12-04T00:09:42;1.10;71.00
17659;DHT22;8948;51.534;8.262;2023-12-04T00:14:43;1.20;71.00
17659;DHT22;8948;51.534;8.262;2023-12-04T00:19:44;1.20;70.50
17659;DHT22;8948;51.534;8.262;2023-12-04T00:24:44;1.30;70.60
17659;DHT22;8948;51.534;8.262;2023-12-04T00:29:45;1.20;71.10
17659;DHT22;8948;51.534;8.262;2023-12-04T00:34:45;1.30;71.50
17659;DHT22;8948;51.534;8.262;2023-12-04T00:39:46;1.30;71.70
17659;DHT22;8948;51.534;8.262;2023-12-04T00:44:46;1.40;70.80
17659;DHT22;8948;51.534;8.262;2023-12-04T00:49:47;1.40;70.10
17659;DHT22;8948;51.534;8.262;2023-12-04T00:54:47;1.40;70.00
17659;DHT22;8948;51.534;8.262;2023-12-04T00:59:48;1.40;69.30
17659;DHT22;8948;51.534;8.262;2023-12-04T01:04:49;1.50;67.90
17659;DHT22;8948;51.534;8.262;2023-12-04T01:09:49;1.50;67.70
17659;DHT22;8948;51.534;8.262;2023-12-04T01:14:50;1.60;65.90
17659;DHT22;8948;51.534;8.262;2023-12-04T01:19:50;1.50;65.40
17659;DHT22;8948;51.534;8.262;2023-12-04T01:24:51;1.50;64.90
17659;DHT22;8948;51.534;8.262;2023-12-04T01:29:51;1.60;64.30
17659;DHT22;8948;51.534;8.262;2023-12-04T01:34:52;1.60;64.30
17659;DHT22;8948;51.534;8.262;2023-12-04T01:39:52;1.60;63.60
17659;DHT22;8948;51.534;8.262;2023-12-04T01:44:53;1.70;62.60
17659;DHT22;8948;51.534;8.262;2023-12-04T01:49:54;1.60;62.30
17659;DHT22;8948;51.534;8.262;2023-12-04T01:54:54;1.70;61.30
17659;DHT22;8948;51.534;8.262;2023-12-04T01:59:55;1.60;61.80
17659;DHT22;8948;51.534;8.262;2023-12-04T02:04:57;1.70;60.90
17659;DHT22;8948;51.534;8.262;2023-12-04T02:09:58;1.70;60.10
17659;DHT22;8948;51.534;8.262;2023-12-04T02:14:58;1.80;60.20
17659;DHT22;8948;51.534;8.262;2023-12-04T02:19:59;1.90;60.10
17659;DHT22;8948;51.534;8.262;2023-12-04T02:25:00;1.90;59.00
17659;DHT22;8948;51.534;8.262;2023-12-04T02:30:01;1.90;60.30
17659;DHT22;8948;51.534;8.262;2023-12-04T02:35:06;2.00;59.80
17659;DHT22;8948;51.534;8.262;2023-12-04T02:40:08;2.00;59.80
17659;DHT22;8948;51.534;8.262;2023-12-04T02:45:10;2.00;59.80
17659;DHT22;8948;51.534;8.262;2023-12-04T02:50:11;2.10;60.10
17659;DHT22;8948;51.534;8.262;2023-12-04T02:55:12;2.10;59.60
17659;DHT22;8948;51.534;8.262;2023-12-04T03:00:12;2.10;59.60
17659;DHT22;8948;51.534;8.262;2023-12-04T03:05:13;2.00;59.00
17659;DHT22;8948;51.534;8.262;2023-12-04T03:10:14;2.10;58.10
17659;DHT22;8948;51.534;8.262;2023-12-04T03:15:14;2.10;57.60
17659;DHT22;8948;51.534;8.262;2023-12-04T03:20:15;2.10;57.10
17659;DHT22;8948;51.534;8.262;2023-12-04T03:25:15;2.10;56.90
17659;DHT22;8948;51.534;8.262;2023-12-04T03:30:16;2.20;56.10
17659;DHT22;8948;51.534;8.262;2023-12-04T03:35:17;2.20;56.90
17659;DHT22;8948;51.534;8.262;2023-12-04T03:40:17;2.20;56.00
17659;DHT22;8948;51.534;8.262;2023-12-04T03:45:18;2.30;55.90
17659;DHT22;8948;51.534;8.262;2023-12-04T03:50:18;2.20;56.50
17659;DHT22;8948;51.534;8.262;2023-12-04T03:55:19;2.30;55.60
17659;DHT22;8948;51.534;8.262;2023-12-04T04:00:20;2.30;54.80
17659;DHT22;8948;51.534;8.262;2023-12-04T04:05:20;2.40;55.70
17659;DHT22;8948;51.534;8.262;2023-12-04T04:10:21;2.40;55.50
17659;DHT22;8948;51.534;8.262;2023-12-04T04:15:22;2.40;54.50
17659;DHT22;8948;51.534;8.262;2023-12-04T04:20:23;2.40;54.60
17659;DHT22;8948;51.534;8.262;2023-12-04T04:25:23;2.40;56.00
17659;DHT22;8948;51.534;8.262;2023-12-04T04:30:24;2.50;55.10
17659;DHT22;8948;51.534;8.262;2023-12-04T04:35:24;2.50;54.50
17659;DHT22;8948;51.534;8.262;2023-12-04T04:40:25;2.50;54.40
17659;DHT22;8948;51.534;8.262;2023-12-04T04:45:26;2.50;54.40
17659;DHT22;8948;51.534;8.262;2023-12-04T04:50:26;2.50;53.90
17659;DHT22;8948;51.534;8.262;2023-12-04T04:55:27;2.40;53.40
17659;DHT22;8948;51.534;8.262;2023-12-04T05:00:27;2.40;54.30
17659;DHT22;8948;51.534;8.262;2023-12-04T05:05:28;2.50;54.80
17659;DHT22;8948;51.534;8.262;2023-12-04T05:10:28;2.50;54.10
17659;DHT22;8948;51.534;8.262;2023-12-04T05:15:29;2.60;53.90
17659;DHT22;8948;51.534;8.262;2023-12-04T05:20:29;2.60;53.60
17659;DHT22;8948;51.534;8.262;2023-12-04T05:25:30;2.60;53.60
17659;DHT22;8948;51.534;8.262;2023-12-04T05:30:30;2.60;54.00
17659;DHT22;8948;51.534;8.262;2023-12-04T05:35:31;2.60;52.90
17659;DHT22;8948;51.534;8.262;2023-12-04T05:40:34;2.70;58.20
17659;DHT22;8948;51.534;8.262;2023-12-04T05:45:35;2.80;53.80
17659;DHT22;8948;51.534;8.262;2023-12-04T05:50:35;2.70;53.50
17659;DHT22;8948;51.534;8.262;2023-12-04T05:55:36;2.60;52.60
17659;DHT22;8948;51.534;8.262;2023-12-04T06:00:36;2.60;53.00
17659;DHT22;8948;51.534;8.262;2023-12-04T06:05:37;2.60;52.80
17659;DHT22;8948;51.534;8.262;2023-12-04T06:10:38;2.60;53.80
17659;DHT22;8948;51.534;8.262;2023-12-04T06:15:38;2.60;53.40
17659;DHT22;8948;51.534;8.262;2023-12-04T06:20:39;2.60;52.60
17659;DHT22;8948;51.534;8.262;2023-12-04T06:25:40;2.60;52.20
17659;DHT22;8948;51.534;8.262;2023-12-04T06:30:40;2.70;53.00
17659;DHT22;8948;51.534;8.262;2023-12-04T06:35:41;2.70;52.70
17659;DHT22;8948;51.534;8.262;2023-12-04T06:40:42;2.80;52.40
17659;DHT22;8948;51.534;8.262;2023-12-04T06:45:43;2.80;52.50
17659;DHT22;8948;51.534;8.262;2023-12-04T06:50:44;2.80;52.20
17659;DHT22;8948;51.534;8.262;2023-12-04T06:55:44;2.90;52.40
17659;DHT22;8948;51.534;8.262;2023-12-04T07:00:45;2.90;53.00
17659;DHT22;8948;51.534;8.262;2023-12-04T07:05:45;2.90;52.90
17659;DHT22;8948;51.534;8.262;2023-12-04T07:10:46;2.90;52.40
17659;DHT22;8948;51.534;8.262;2023-12-04T07:15:47;2.90;52.80
17659;DHT22;8948;51.534;8.262;2023-12-04T07:20:47;2.80;52.90
17659;DHT22;8948;51.534;8.262;2023-12-04T07:25:48;2.90;52.40
17659;DHT22;8948;51.534;8.262;2023-12-04T07:30:48;2.80;51.90
17659;DHT22;8948;51.534;8.262;2023-12-04T07:35:49;2.90;52.80
17659;DHT22;8948;51.534;8.262;2023-12-04T07:40:49;2.90;53.20
17659;DHT22;8948;51.534;8.262;2023-12-04T07:45:50;2.80;52.30
17659;DHT22;8948;51.534;8.262;2023-12-04T07:50:50;2.90;52.10
17659;DHT22;8948;51.534;8.262;2023-12-04T07:55:51;2.90;52.30
17659;DHT22;8948;51.534;8.262;2023-12-04T08:00:52;2.90;51.60
17659;DHT22;8948;51.534;8.262;2023-12-04T08:05:52;2.90;52.30
17659;DHT22;8948;51.534;8.262;2023-12-04T08:10:53;2.90;52.80
17659;DHT22;8948;51.534;8.262;2023-12-04T08:15:53;2.80;51.70
17659;DHT22;8948;51.534;8.262;2023-12-04T08:20:54;2.90;50.90
17659;DHT22;8948;51.534;8.262;2023-12-04T08:25:54;2.90;50.20
17659;DHT22;8948;51.534;8.262;2023-12-04T08:30:55;3.00;50.00
17659;DHT22;8948;51.534;8.262;2023-12-04T08:35:55;3.10;48.90
17659;DHT22;8948;51.534;8.262;2023-12-04T08:40:56;3.20;48.80
17659;DHT22;8948;51.534;8.262;2023-12-04T08:45:57;3.30;48.90
17659;DHT22;8948;51.534;8.262;2023-12-04T08:50:57;3.50;49.50
17659;DHT22;8948;51.534;8.262;2023-12-04T08:55:58;3.60;47.80
17659;DHT22;8948;51.534;8.262;2023-12-04T09:00:59;3.70;47.10
17659;DHT22;8948;51.534;8.262;2023-12-04T09:06:00;3.80;47.40
17659;DHT22;8948;51.534;8.262;2023-12-04T09:11:00;3.90;47.50
17659;DHT22;8948;51.534;8.262;2023-12-04T09:16:02;4.00;49.00
17659;DHT22;8948;51.534;8.262;2023-12-04T09:21:03;4.00;47.40
17659;DHT22;8948;51.534;8.262;2023-12-04T09:26:05;4.00;47.20
17659;DHT22;8948;51.534;8.262;2023-12-04T09:31:06;4.00;47.40
17659;DHT22;8948;51.534;8.262;2023-12-04T09:36:07;4.10;47.90
17659;DHT22;8948;51.534;8.262;2023-12-04T09:41:09;4.20;48.30
17659;DHT22;8948;51.534;8.262;2023-12-04T09:46:11;4.30;48.80
17659;DHT22;8948;51.534;8.262;2023-12-04T09:51:12;4.30;47.90
17659;DHT22;8948;51.534;8.262;2023-12-04T09:56:15;4.30;48.50
17659;DHT22;8948;51.534;8.262;2023-12-04T10:01:16;4.40;48.30
17659;DHT22;8948;51.534;8.262;2023-12-04T10:06:17;4.40;47.40
17659;DHT22;8948;51.534;8.262;2023-12-04T10:11:18;4.40;47.50
17659;DHT22;8948;51.534;8.262;2023-12-04T10:16:34;4.40;47.30
17659;DHT22;8948;51.534;8.262;2023-12-04T10:21:35;4.40;47.70
17659;DHT22;8948;51.534;8.262;2023-12-04T10:26:36;4.50;48.50
17659;DHT22;8948;51.534;8.262;2023-12-04T10:31:36;4.40;47.60
17659;DHT22;8948;51.534;8.262;2023-12-04T10:36:38;4.30;49.10
17659;DHT22;8948;51.534;8.262;2023-12-04T10:41:38;4.30;49.90
17659;DHT22;8948;51.534;8.262;2023-12-04T10:46:41;4.50;50.30
17659;DHT22;8948;51.534;8.262;2023-12-04T10:51:43;4.60;49.30
17659;DHT22;8948;51.534;8.262;2023-12-04T10:56:46;4.60;48.40
17659;DHT22;8948;51.534;8.262;2023-12-04T11:01:56;4.60;49.30
17659;DHT22;8948;51.534;8.262;2023-12-04T11:06:59;4.60;49.60
17659;DHT22;8948;51.534;8.262;2023-12-04T11:12:06;5.00;54.40
17659;DHT22;8948;51.534;8.262;2023-12-04T11:17:10;5.10;50.10
17659;DHT22;8948;51.534;8.262;2023-12-04T11:22:14;5.10;50.20
17659;DHT22;8948;51.534;8.262;2023-12-04T11:27:19;5.00;50.70
17659;DHT22;8948;51.534;8.262;2023-12-04T11:32:24;4.90;50.10
17659;DHT22;8948;51.534;8.262;2023-12-04T11:37:27;4.80;49.40
17659;DHT22;8948;51.534;8.262;2023-12-04T11:42:30;4.70;50.00
17659;DHT22;8948;51.534;8.262;2023-12-04T11:47:31;4.70;50.00
17659;DHT22;8948;51.534;8.262;2023-12-04T11:52:48;4.70;49.90
17659;DHT22;8948;51.534;8.262;2023-12-04T11:57:50;4.70;50.70
17659;DHT22;8948;51.534;8.262;2023-12-04T12:07:55;4.60;52.50
17659;DHT22;8948;51.534;8.262;2023-12-04T12:12:55;4.50;52.20
17659;DHT22;8948;51.534;8.262;2023-12-04T12:17:57;4.50;53.60
17659;DHT22;8948;51.534;8.262;2023-12-04T12:22:57;4.60;56.10
17659;DHT22;8948;51.534;8.262;2023-12-04T12:28:02;4.70;56.50
17659;DHT22;8948;51.534;8.262;2023-12-04T12:33:02;4.70;54.80
17659;DHT22;8948;51.534;8.262;2023-12-04T12:38:03;4.60;55.10
17659;DHT22;8948;51.534;8.262;2023-12-04T12:43:08;4.70;57.40
17659;DHT22;8948;51.534;8.262;2023-12-04T12:48:15;4.60;55.90
17659;DHT22;8948;51.534;8.262;2023-12-04T12:53:17;4.50;56.20
17659;DHT22;8948;51.534;8.262;2023-12-04T12:58:18;4.50;55.50
17659;DHT22;8948;51.534;8.262;2023-12-04T13:03:21;4.40;56.10
17659;DHT22;8948;51.534;8.262;2023-12-04T13:08:21;4.30;57.50
17659;DHT22;8948;51.534;8.262;2023-12-04T13:13:22;4.30;58.30
17659;DHT22;8948;51.534;8.262;2023-12-04T13:18:22;4.30;59.00
17659;DHT22;8948;51.534;8.262;2023-12-04T13:23:23;4.40;59.50
17659;DHT22;8948;51.534;8.262;2023-12-04T13:28:24;4.40;59.80
17659;DHT22;8948;51.534;8.262;2023-12-04T13:33:25;4.60;60.20
17659;DHT22;8948;51.534;8.262;2023-12-04T13:38:26;4.70;59.60
17659;DHT22;8948;51.534;8.262;2023-12-04T13:43:27;4.70;60.10
17659;DHT22;8948;51.534;8.262;2023-12-04T13:48:46;4.70;61.00
17659;DHT22;8948;51.534;8.262;2023-12-04T13:53:47;4.60;61.20
17659;DHT22;8948;51.534;8.262;2023-12-04T13:58:51;4.60;61.60
17659;DHT22;8948;51.534;8.262;2023-12-04T14:03:57;4.60;61.20
17659;DHT22;8948;51.534;8.262;2023-12-04T14:09:02;4.50;62.30
17659;DHT22;8948;51.534;8.262;2023-12-04T14:14:10;4.50;62.90
17659;DHT22;8948;51.534;8.262;2023-12-04T14:19:13;4.60;62.70
17659;DHT22;8948;51.534;8.262;2023-12-04T14:24:15;4.50;63.40
17659;DHT22;8948;51.534;8.262;2023-12-04T14:29:16;4.40;64.00
17659;DHT22;8948;51.534;8.262;2023-12-04T14:34:16;4.30;64.80
17659;DHT22;8948;51.534;8.262;2023-12-04T14:39:17;4.20;65.10
17659;DHT22;8948;51.534;8.262;2023-12-04T14:44:19;4.00;65.70
17659;DHT22;8948;51.534;8.262;2023-12-04T14:49:19;3.90;67.10
17659;DHT22;8948;51.534;8.262;2023-12-04T14:54:20;3.90;68.10
17659;DHT22;8948;51.534;8.262;2023-12-04T14:59:37;3.80;67.80
17659;DHT22;8948;51.534;8.262;2023-12-04T15:04:41;3.70;68.10
17659;DHT22;8948;51.534;8.262;2023-12-04T15:10:00;3.70;68.10
17659;DHT22;8948;51.534;8.262;2023-12-04T15:15:26;3.50;68.60
17659;DHT22;8948;51.534;8.262;2023-12-04T15:20:47;3.40;69.20
17659;DHT22;8948;51.534;8.262;2023-12-04T15:25:48;3.30;69.60
17659;DHT22;8948;51.534;8.262;2023-12-04T15:30:48;3.30;69.90
17659;DHT22;8948;51.534;8.262;2023-12-04T15:35:49;3.40;69.40
17659;DHT22;8948;51.534;8.262;2023-12-04T15:40:51;3.30;69.50
17659;DHT22;8948;51.534;8.262;2023-12-04T15:45:52;3.30;69.10
17659;DHT22;8948;51.534;8.262;2023-12-04T15:50:52;3.30;69.50
17659;DHT22;8948;51.534;8.262;2023-12-04T15:55:53;3.40;69.20
17659;DHT22;8948;51.534;8.262;2023-12-04T16:00:54;3.40;68.60
17659;DHT22;8948;51.534;8.262;2023-12-04T16:05:54;3.40;68.60
17659;DHT22;8948;51.534;8.262;2023-12-04T16:10:55;3.40;68.30
17659;DHT22;8948;51.534;8.262;2023-12-04T16:15:55;3.40;68.00
17659;DHT22;8948;51.534;8.262;2023-12-04T16:20:56;3.40;68.50
17659;DHT22;8948;51.534;8.262;2023-12-04T16:25:58;3.40;68.20
17659;DHT22;8948;51.534;8.262;2023-12-04T16:30:58;3.40;68.20
17659;DHT22;8948;51.534;8.262;2023-12-04T16:35:59;3.40;67.70
17659;DHT22;8948;51.534;8.262;2023-12-04T16:41:00;3.40;68.10
17659;DHT22;8948;51.534;8.262;2023-12-04T16:46:01;3.40;68.40
17659;DHT22;8948;51.534;8.262;2023-12-04T16:51:02;3.50;68.30
17659;DHT22;8948;51.534;8.262;2023-12-04T16:56:08;3.50;69.00
17659;DHT22;8948;51.534;8.262;2023-12-04T17:01:10;3.50;68.80
17659;DHT22;8948;51.534;8.262;2023-12-04T17:06:11;3.60;68.80
17659;DHT22;8948;51.534;8.262;2023-12-04T17:11:12;3.70;68.90
17659;DHT22;8948;51.534;8.262;2023-12-04T17:16:13;3.70;69.10
17659;DHT22;8948;51.534;8.262;2023-12-04T17:21:14;3.80;69.10
17659;DHT22;8948;51.534;8.262;2023-12-04T17:26:15;3.80;69.40
17659;DHT22;8948;51.534;8.262;2023-12-04T17:31:16;3.90;69.00
17659;DHT22;8948;51.534;8.262;2023-12-04T17:36:16;3.90;69.00
17659;DHT22;8948;51.534;8.262;2023-12-04T17:41:18;3.90;68.40
17659;DHT22;8948;51.534;8.262;2023-12-04T17:46:18;3.80;68.50
17659;DHT22;8948;51.534;8.262;2023-12-04T17:51:19;3.80;69.10
17659;DHT22;8948;51.534;8.262;2023-12-04T17:56:19;3.80;69.20
17659;DHT22;8948;51.534;8.262;2023-12-04T18:01:20;3.60;69.80
17659;DHT22;8948;51.534;8.262;2023-12-04T18:06:30;3.60;70.80
17659;DHT22;8948;51.534;8.262;2023-12-04T18:11:31;3.50;71.80
17659;DHT22;8948;51.534;8.262;2023-12-04T18:16:32;3.50;72.60
17659;DHT22;8948;51.534;8.262;2023-12-04T18:21:32;3.50;72.70
17659;DHT22;8948;51.534;8.262;2023-12-04T18:26:33;3.30;73.60
17659;DHT22;8948;51.534;8.262;2023-12-04T18:31:34;3.30;73.80
17659;DHT22;8948;51.534;8.262;2023-12-04T18:36:41;3.10;74.20
17659;DHT22;8948;51.534;8.262;2023-12-04T18:41:43;3.10;73.50
17659;DHT22;8948;51.534;8.262;2023-12-04T18:46:44;3.10;73.00
17659;DHT22;8948;51.534;8.262;2023-12-04T18:51:46;3.20;72.20
17659;DHT22;8948;51.534;8.262;2023-12-04T18:56:46;3.10;71.60
17659;DHT22;8948;51.534;8.262;2023-12-04T19:01:47;3.20;71.00
17659;DHT22;8948;51.534;8.262;2023-12-04T19:06:47;3.20;70.80
17659;DHT22;8948;51.534;8.262;2023-12-04T19:11:48;3.20;71.00
17659;DHT22;8948;51.534;8.262;2023-12-04T19:16:48;3.20;70.70
17659;DHT22;8948;51.534;8.262;2023-12-04T19:21:49;3.30;70.60
17659;DHT22;8948;51.534;8.262;2023-12-04T19:26:50;3.30;70.60
17659;DHT22;8948;51.534;8.262;2023-12-04T19:31:50;3.30;70.50
17659;DHT22;8948;51.534;8.262;2023-12-04T19:36:51;3.30;71.00
17659;DHT22;8948;51.534;8.262;2023-12-04T19:41:52;3.40;70.80
17659;DHT22;8948;51.534;8.262;2023-12-04T19:46:52;3.40;70.70
17659;DHT22;8948;51.534;8.262;2023-12-04T19:51:54;3.50;71.00
17659;DHT22;8948;51.534;8.262;2023-12-04T19:56:55;3.50;71.20
17659;DHT22;8948;51.534;8.262;2023-12-04T20:01:56;3.50;71.10
17659;DHT22;8948;51.534;8.262;2023-12-04T20:06:57;3.50;71.70
17659;DHT22;8948;51.534;8.262;2023-12-04T20:11:58;3.60;72.40
17659;DHT22;8948;51.534;8.262;2023-12-04T20:16:59;3.60;73.70
17659;DHT22;8948;51.534;8.262;2023-12-04T20:21:59;3.60;74.20
17659;DHT22;8948;51.534;8.262;2023-12-04T20:27:01;3.50;74.60
17659;DHT22;8948;51.534;8.262;2023-12-04T20:32:01;3.50;74.60
17659;DHT22;8948;51.534;8.262;2023-12-04T20:37:02;3.50;75.20
17659;DHT22;8948;51.534;8.262;2023-12-04T20:42:03;3.50;75.50
17659;DHT22;8948;51.534;8.262;2023-12-04T20:47:04;3.50;75.60
17659;DHT22;8948;51.534;8.262;2023-12-04T20:52:05;3.50;75.50
17659;DHT22;8948;51.534;8.262;2023-12-04T20:57:06;3.50;75.50
17659;DHT22;8948;51.534;8.262;2023-12-04T21:02:07;3.40;75.60
17659;DHT22;8948;51.534;8.262;2023-12-04T21:07:08;3.40;75.30
17659;DHT22;8948;51.534;8.262;2023-12-04T21:12:10;3.40;75.70
17659;DHT22;8948;51.534;8.262;2023-12-04T21:17:13;3.40;74.90
17659;DHT22;8948;51.534;8.262;2023-12-04T21:22:13;3.40;75.70
17659;DHT22;8948;51.534;8.262;2023-12-04T21:27:14;3.40;75.80
17659;DHT22;8948;51.534;8.262;2023-12-04T21:32:15;3.50;75.30
17659;DHT22;8948;51.534;8.262;2023-12-04T21:37:15;3.60;74.80
17659;DHT22;8948;51.534;8.262;2023-12-04T21:42:16;3.60;75.20
17659;DHT22;8948;51.534;8.262;2023-12-04T21:47:16;3.60;74.50
17659;DHT22;8948;51.534;8.262;2023-12-04T21:52:17;3.70;74.10
17659;DHT22;8948;51.534;8.262;2023-12-04T21:57:17;3.70;74.50
17659;DHT22;8948;51.534;8.262;2023-12-04T22:02:18;3.70;74.70
17659;DHT22;8948;51.534;8.262;2023-12-04T22:07:18;3.80;74.40
17659;DHT22;8948;51.534;8.262;2023-12-04T22:12:19;3.90;73.90
17659;DHT22;8948;51.534;8.262;2023-12-04T22:17:20;3.90;73.90
17659;DHT22;8948;51.534;8.262;2023-12-04T22:22:21;3.90;74.10
17659;DHT22;8948;51.534;8.262;2023-12-04T22:27:22;3.90;73.80
17659;DHT22;8948;51.534;8.262;2023-12-04T22:32:22;4.00;73.70
17659;DHT22;8948;51.534;8.262;2023-12-04T22:37:23;4.00;73.50
17659;DHT22;8948;51.534;8.262;2023-12-04T22:42:24;4.10;73.40
17659;DHT22;8948;51.534;8.262;2023-12-04T22:47:24;4.10;73.40
17659;DHT22;8948;51.534;8.262;2023-12-04T22:52:25;4.10;73.20
17659;DHT22;8948;51.534;8.262;2023-12-04T22:57:26;4.20;73.00
17659;DHT22;8948;51.534;8.262;2023-12-04T23:02:26;4.20;73.10
17659;DHT22;8948;51.534;8.262;2023-12-04T23:07:27;4.20;73.70
17659;DHT22;8948;51.534;8.262;2023-12-04T23:12:27;4.30;73.30
17659;DHT22;8948;51.534;8.262;2023-12-04T23:17:28;4.30;73.50
17659;DHT22;8948;51.534;8.262;2023-12-04T23:22:29;4.30;73.20
17659;DHT22;8948;51.534;8.262;2023-12-04T23:27:29;4.30;73.30
17659;DHT22;8948;51.534;8.262;2023-12-04T23:32:30;4.30;73.60
17659;DHT22;8948;51.534;8.262;2023-12-04T23:37:30;4.30;73.50
17659;DHT22;8948;51.534;8.262;2023-12-04T23:42:31;4.30;73.20
17659;DHT22;8948;51.534;8.262;2023-12-04T23:47:32;4.40;73.10
17659;DHT22;8948;51.534;8.262;2023-12-04T23:52:32;4.40;73.30
17659;DHT22;8948;51.534;8.262;2023-12-04T23:57:33;4.40;73.50
